createdAt,value
2023-04-23T00:00:54.190Z,27.70
2023-04-23T00:01:51.614Z,27.69
2023-04-23T00:02:51.610Z,27.70
2023-04-23T00:03:51.661Z,27.74
2023-04-23T00:04:51.640Z,27.71
2023-04-23T00:05:51.488Z,27.74
2023-04-23T00:06:51.433Z,27.76
2023-04-23T00:07:51.406Z,27.70
2023-04-23T00:08:51.357Z,27.76
2023-04-23T00:09:51.317Z,27.71
2023-04-23T00:10:51.281Z,27.69
2023-04-23T00:11:51.251Z,27.75
2023-04-23T00:12:51.221Z,27.73
2023-04-23T00:13:51.166Z,27.74
2023-04-23T00:14:51.115Z,27.80
2023-04-23T00:15:51.133Z,27.75
2023-04-23T00:16:51.079Z,27.75
2023-04-23T00:17:51.124Z,27.76
2023-04-23T00:18:50.949Z,27.81
2023-04-23T00:19:50.952Z,27.78
2023-04-23T00:20:50.948Z,27.84
2023-04-23T00:21:50.936Z,27.81
2023-04-23T00:22:50.920Z,27.84
2023-04-23T00:23:50.915Z,27.82
2023-04-23T00:24:50.897Z,27.81
2023-04-23T00:25:50.836Z,27.81
2023-04-23T00:26:50.871Z,27.82
2023-04-23T00:27:50.785Z,27.80
2023-04-23T00:28:50.742Z,27.81
2023-04-23T00:29:50.710Z,27.85
2023-04-23T00:30:50.660Z,27.84
2023-04-23T00:31:50.699Z,27.78
2023-04-23T00:32:50.634Z,27.81
2023-04-23T00:33:50.560Z,27.82
2023-04-23T00:34:50.525Z,27.83
2023-04-23T00:35:50.492Z,27.83
2023-04-23T00:36:50.456Z,27.87
2023-04-23T00:37:50.436Z,27.84
2023-04-23T00:38:50.402Z,27.82
2023-04-23T00:39:50.378Z,27.80
2023-04-23T00:40:50.373Z,27.81
2023-04-23T00:41:50.389Z,27.90
2023-04-23T00:42:50.393Z,27.90
2023-04-23T00:43:50.388Z,27.89
2023-04-23T00:44:50.382Z,27.88
2023-04-23T00:45:50.406Z,27.87
2023-04-23T00:46:50.380Z,27.86
2023-04-23T00:47:50.399Z,27.86
2023-04-23T00:48:50.366Z,27.86
2023-04-23T00:49:50.375Z,27.86
2023-04-23T00:50:50.389Z,27.89
2023-04-23T00:51:50.386Z,27.85
2023-04-23T00:52:50.379Z,27.86
2023-04-23T00:53:50.383Z,27.88
2023-04-23T00:54:50.380Z,27.86
2023-04-23T00:55:50.386Z,27.91
2023-04-23T00:56:50.384Z,27.83
2023-04-23T00:57:50.410Z,27.90
2023-04-23T00:58:50.404Z,27.90
2023-04-23T00:59:50.432Z,27.87
2023-04-23T01:00:50.437Z,27.88
2023-04-23T01:01:50.425Z,27.91
2023-04-23T01:02:50.617Z,27.91
2023-04-23T01:03:50.678Z,27.90
2023-04-23T01:04:50.336Z,27.88
2023-04-23T01:05:50.298Z,27.87
2023-04-23T01:06:50.284Z,27.93
2023-04-23T01:07:50.248Z,27.84
2023-04-23T01:08:50.213Z,27.86
2023-04-23T01:09:50.194Z,27.95
2023-04-23T01:10:50.143Z,27.88
2023-04-23T01:11:50.123Z,27.87
2023-04-23T01:12:50.107Z,27.95
2023-04-23T01:13:50.059Z,27.95
2023-04-23T01:14:50.020Z,28.01
2023-04-23T01:15:49.997Z,27.93
2023-04-23T01:16:49.992Z,27.91
2023-04-23T01:17:49.972Z,27.88
2023-04-23T01:18:49.910Z,27.90
2023-04-23T01:19:49.893Z,27.92
2023-04-23T01:20:49.863Z,27.99
2023-04-23T01:21:49.826Z,27.93
2023-04-23T01:22:49.798Z,27.94
2023-04-23T01:23:49.750Z,27.93
2023-04-23T01:24:49.738Z,27.93
2023-04-23T01:25:49.700Z,27.88
2023-04-23T01:26:49.678Z,27.98
2023-04-23T01:27:49.651Z,27.93
2023-04-23T01:28:49.661Z,27.94
2023-04-23T01:29:49.675Z,27.90
2023-04-23T01:30:49.727Z,27.98
2023-04-23T01:31:49.662Z,27.97
2023-04-23T01:32:49.691Z,27.98
2023-04-23T01:33:49.662Z,28.01
2023-04-23T01:34:49.663Z,27.94
2023-04-23T01:35:49.841Z,27.95
2023-04-23T01:36:49.670Z,27.90
2023-04-23T01:37:49.687Z,27.95
2023-04-23T01:38:49.680Z,27.91
2023-04-23T01:39:49.691Z,27.97
2023-04-23T01:40:49.690Z,27.95
2023-04-23T01:41:49.688Z,27.98
2023-04-23T01:42:49.717Z,27.99
2023-04-23T01:43:49.699Z,27.96
2023-04-23T01:44:49.701Z,27.99
2023-04-23T01:45:49.739Z,27.95
2023-04-23T01:46:49.717Z,27.99
2023-04-23T01:47:49.753Z,27.99
2023-04-23T01:48:49.712Z,28.01
2023-04-23T01:49:49.719Z,28.01
2023-04-23T01:50:49.722Z,27.95
2023-04-23T01:51:49.730Z,28.00
2023-04-23T01:52:49.761Z,27.91
2023-04-23T01:53:49.747Z,27.98
2023-04-23T01:54:49.759Z,27.94
2023-04-23T01:55:49.758Z,27.98
2023-04-23T01:56:49.768Z,27.96
2023-04-23T01:57:49.760Z,28.00
2023-04-23T01:58:49.765Z,27.98
2023-04-23T01:59:49.768Z,27.99
2023-04-23T02:00:49.789Z,27.94
2023-04-23T02:01:49.905Z,27.98
2023-04-23T02:02:49.920Z,28.01
2023-04-23T02:03:49.873Z,27.92
2023-04-23T02:04:49.788Z,27.91
2023-04-23T02:05:49.802Z,27.96
2023-04-23T02:06:49.824Z,27.91
2023-04-23T02:07:49.819Z,28.02
2023-04-23T02:08:49.813Z,27.97
2023-04-23T02:09:49.833Z,27.96
2023-04-23T02:10:49.846Z,27.95
2023-04-23T02:11:49.840Z,27.99
2023-04-23T02:12:49.848Z,27.96
2023-04-23T02:13:49.849Z,28.02
2023-04-23T02:14:49.860Z,27.99
2023-04-23T02:15:49.915Z,28.01
2023-04-23T02:16:49.861Z,27.89
2023-04-23T02:17:49.898Z,28.03
2023-04-23T02:18:49.860Z,27.93
2023-04-23T02:19:49.866Z,27.95
2023-04-23T02:20:49.867Z,27.92
2023-04-23T02:21:49.879Z,27.97
2023-04-23T02:22:49.888Z,27.93
2023-04-23T02:23:49.875Z,27.96
2023-04-23T02:24:49.875Z,27.93
2023-04-23T02:25:49.880Z,27.98
2023-04-23T02:26:49.878Z,27.99
2023-04-23T02:27:49.891Z,27.98
2023-04-23T02:28:49.891Z,27.96
2023-04-23T02:29:49.900Z,27.95
2023-04-23T02:30:49.914Z,27.99
2023-04-23T02:31:49.979Z,27.95
2023-04-23T02:32:49.970Z,27.98
2023-04-23T02:33:49.916Z,27.95
2023-04-23T02:34:49.910Z,27.93
2023-04-23T02:35:49.914Z,27.95
2023-04-23T02:36:49.921Z,27.99
2023-04-23T02:37:49.953Z,27.95
2023-04-23T02:38:49.933Z,27.97
2023-04-23T02:39:49.956Z,27.93
2023-04-23T02:40:49.933Z,27.96
2023-04-23T02:41:49.943Z,27.95
2023-04-23T02:42:49.940Z,27.92
2023-04-23T02:43:49.972Z,27.95
2023-04-23T02:44:49.943Z,27.93
2023-04-23T02:45:49.954Z,27.91
2023-04-23T02:46:50.105Z,27.97
2023-04-23T02:47:50.003Z,27.94
2023-04-23T02:48:49.953Z,27.96
2023-04-23T02:49:49.972Z,27.99
2023-04-23T02:50:49.977Z,27.89
2023-04-23T02:51:49.985Z,27.96
2023-04-23T02:52:49.989Z,27.93
2023-04-23T02:53:49.981Z,27.93
2023-04-23T02:54:49.988Z,27.92
2023-04-23T02:55:49.983Z,27.93
2023-04-23T02:56:49.987Z,27.91
2023-04-23T02:57:50.000Z,27.97
2023-04-23T02:58:50.000Z,27.95
2023-04-23T02:59:49.995Z,27.93
2023-04-23T03:00:50.059Z,27.89
2023-04-23T03:01:50.045Z,27.91
2023-04-23T03:02:50.095Z,27.95
2023-04-23T03:03:50.185Z,27.93
2023-04-23T03:04:50.011Z,27.96
2023-04-23T03:05:50.177Z,27.96
2023-04-23T03:06:50.023Z,27.93
2023-04-23T03:07:50.048Z,28.00
2023-04-23T03:08:50.041Z,27.91
2023-04-23T03:09:50.074Z,27.99
2023-04-23T03:12:08.956Z,28.00
2023-04-23T03:13:08.953Z,27.99
2023-04-23T03:14:08.949Z,27.99
2023-04-23T03:15:08.955Z,28.00
2023-04-23T03:16:08.960Z,27.96
2023-04-23T03:17:08.994Z,28.00
2023-04-23T03:18:08.945Z,27.96
2023-04-23T03:19:08.934Z,28.00
2023-04-23T03:20:08.922Z,28.00
2023-04-23T03:21:08.923Z,27.96
2023-04-23T03:22:08.906Z,27.99
2023-04-23T03:23:08.909Z,27.93
2023-04-23T03:24:08.891Z,27.97
2023-04-23T03:25:08.892Z,27.96
2023-04-23T03:26:08.878Z,27.97
2023-04-23T03:27:08.870Z,28.00
2023-04-23T03:28:09.145Z,27.96
2023-04-23T03:29:08.867Z,28.00
2023-04-23T03:30:08.867Z,27.91
2023-04-23T03:31:08.941Z,27.99
2023-04-23T03:32:08.857Z,27.97
2023-04-23T03:33:08.868Z,27.97
2023-04-23T03:34:08.857Z,27.93
2023-04-23T03:35:08.845Z,27.97
2023-04-23T03:36:08.828Z,28.00
2023-04-23T03:37:08.829Z,27.99
2023-04-23T03:38:08.834Z,27.96
2023-04-23T03:39:08.839Z,27.96
2023-04-23T03:40:08.816Z,28.00
2023-04-23T03:41:08.818Z,28.03
2023-04-23T03:42:08.797Z,28.02
2023-04-23T03:43:08.806Z,27.96
2023-04-23T03:44:08.797Z,27.99
2023-04-23T03:45:08.771Z,27.99
2023-04-23T03:46:08.808Z,28.00
2023-04-23T03:47:08.773Z,27.97
2023-04-23T03:48:08.757Z,28.02
2023-04-23T03:49:08.746Z,27.99
2023-04-23T03:50:08.738Z,27.99
2023-04-23T03:51:08.745Z,28.00
2023-04-23T03:52:08.763Z,28.04
2023-04-23T03:53:08.745Z,28.03
2023-04-23T03:54:08.738Z,28.00
2023-04-23T03:55:08.725Z,28.02
2023-04-23T03:56:08.719Z,28.01
2023-04-23T03:57:08.724Z,28.02
2023-04-23T03:58:08.721Z,28.02
2023-04-23T03:59:08.723Z,28.03
2023-04-23T04:00:08.720Z,28.00
2023-04-23T04:01:08.712Z,27.98
2023-04-23T04:02:08.782Z,28.01
2023-04-23T04:03:08.887Z,28.00
2023-04-23T04:04:08.884Z,28.04
2023-04-23T04:05:08.817Z,28.04
2023-04-23T04:06:08.697Z,28.00
2023-04-23T04:07:08.677Z,28.01
2023-04-23T04:08:08.669Z,28.04
2023-04-23T04:09:08.649Z,28.03
2023-04-23T04:10:08.633Z,28.02
2023-04-23T04:11:08.644Z,28.03
2023-04-23T04:12:08.637Z,28.04
2023-04-23T04:13:08.617Z,28.01
2023-04-23T04:14:08.612Z,28.01
2023-04-23T04:15:08.607Z,28.03
2023-04-23T04:16:08.664Z,28.04
2023-04-23T04:17:08.598Z,28.08
2023-04-23T04:18:08.595Z,28.01
2023-04-23T04:19:09.164Z,28.02
2023-04-23T04:20:08.595Z,28.03
2023-04-23T04:21:08.618Z,28.04
2023-04-23T04:22:08.621Z,28.00
2023-04-23T04:23:08.638Z,28.01
2023-04-23T04:24:08.632Z,28.02
2023-04-23T04:25:08.667Z,28.05
2023-04-23T04:26:08.669Z,28.09
2023-04-23T04:27:08.675Z,27.98
2023-04-23T04:28:08.710Z,28.07
2023-04-23T04:29:08.700Z,28.08
2023-04-23T04:30:08.721Z,28.05
2023-04-23T04:31:08.790Z,28.05
2023-04-23T04:32:08.743Z,28.07
2023-04-23T04:33:08.745Z,28.09
2023-04-23T04:34:08.750Z,28.08
2023-04-23T04:35:08.776Z,28.08
2023-04-23T04:36:08.780Z,28.08
2023-04-23T04:37:08.786Z,28.05
2023-04-23T04:38:08.810Z,27.98
2023-04-23T04:39:08.815Z,28.05
2023-04-23T04:40:08.825Z,28.01
2023-04-23T04:41:08.856Z,28.08
2023-04-23T04:42:08.852Z,28.05
2023-04-23T04:43:08.857Z,28.06
2023-04-23T04:44:08.869Z,28.05
2023-04-23T04:45:08.896Z,28.06
2023-04-23T04:46:08.894Z,28.07
2023-04-23T04:47:09.044Z,28.11
2023-04-23T04:48:08.936Z,28.06
2023-04-23T04:49:08.956Z,28.04
2023-04-23T04:50:08.934Z,28.13
2023-04-23T04:51:08.947Z,28.06
2023-04-23T04:52:08.973Z,28.11
2023-04-23T04:53:08.983Z,28.07
2023-04-23T04:54:08.999Z,28.12
2023-04-23T04:55:09.037Z,28.11
2023-04-23T04:56:09.023Z,28.12
2023-04-23T04:57:09.039Z,28.11
2023-04-23T04:58:09.051Z,28.07
2023-04-23T04:59:09.062Z,28.12
2023-04-23T05:00:09.064Z,28.06
2023-04-23T05:01:09.129Z,28.11
2023-04-23T05:02:09.196Z,28.06
2023-04-23T05:03:11.032Z,28.14
2023-04-23T05:04:09.390Z,28.12
2023-04-23T05:05:09.098Z,28.08
2023-04-23T05:06:09.097Z,28.09
2023-04-23T05:07:09.081Z,28.11
2023-04-23T05:08:09.089Z,28.05
2023-04-23T05:09:09.082Z,28.06
2023-04-23T05:10:09.090Z,28.09
2023-04-23T05:11:09.075Z,28.08
2023-04-23T05:12:09.076Z,28.09
2023-04-23T05:13:09.105Z,28.06
2023-04-23T05:14:09.080Z,28.02
2023-04-23T05:15:09.051Z,28.06
2023-04-23T05:16:09.086Z,28.13
2023-04-23T05:17:09.051Z,28.05
2023-04-23T05:18:09.046Z,28.05
2023-04-23T05:19:09.052Z,28.09
2023-04-23T05:20:09.047Z,28.12
2023-04-23T05:21:09.022Z,28.06
2023-04-23T05:22:09.017Z,28.06
2023-04-23T05:23:09.026Z,28.12
2023-04-23T05:24:09.066Z,28.09
2023-04-23T05:25:09.020Z,28.08
2023-04-23T05:26:09.021Z,28.13
2023-04-23T05:27:09.038Z,28.08
2023-04-23T05:28:09.028Z,28.09
2023-04-23T05:29:09.035Z,28.06
2023-04-23T05:30:09.036Z,28.09
2023-04-23T05:31:09.033Z,28.09
2023-04-23T05:32:09.066Z,28.12
2023-04-23T05:33:09.044Z,28.09
2023-04-23T05:34:09.039Z,28.11
2023-04-23T05:35:09.052Z,28.06
2023-04-23T05:36:09.039Z,28.09
2023-04-23T05:37:09.041Z,28.09
2023-04-23T05:38:09.053Z,28.08
2023-04-23T05:39:09.039Z,28.09
2023-04-23T05:40:09.050Z,28.06
2023-04-23T05:41:09.056Z,28.14
2023-04-23T05:42:09.071Z,28.08
2023-04-23T05:43:09.056Z,28.02
2023-04-23T05:44:09.043Z,28.08
2023-04-23T05:45:09.372Z,28.08
2023-04-23T05:46:09.067Z,28.13
2023-04-23T05:47:09.052Z,28.12
2023-04-23T05:48:09.049Z,28.04
2023-04-23T05:49:09.055Z,28.11
2023-04-23T05:50:09.047Z,28.12
2023-04-23T05:51:09.033Z,28.11
2023-04-23T05:52:09.026Z,28.11
2023-04-23T05:53:09.027Z,28.11
2023-04-23T05:54:09.028Z,28.08
2023-04-23T05:55:09.033Z,28.06
2023-04-23T05:56:09.054Z,28.08
2023-04-23T05:57:09.037Z,28.10
2023-04-23T05:58:09.036Z,28.09
2023-04-23T05:59:09.038Z,28.08
2023-04-23T06:00:09.074Z,28.09
2023-04-23T06:01:09.036Z,28.06
2023-04-23T06:02:09.109Z,28.14
2023-04-23T06:03:09.169Z,28.13
2023-04-23T06:04:09.218Z,28.08
2023-04-23T06:05:09.171Z,28.09
2023-04-23T06:06:09.075Z,28.08
2023-04-23T06:07:09.064Z,28.02
2023-04-23T06:08:09.065Z,28.09
2023-04-23T06:09:09.047Z,28.11
2023-04-23T06:10:09.043Z,28.06
2023-04-23T06:11:09.048Z,28.09
2023-04-23T06:12:09.056Z,28.09
2023-04-23T06:13:09.073Z,28.08
2023-04-23T06:14:09.101Z,28.04
2023-04-23T06:15:09.078Z,28.11
2023-04-23T06:16:09.106Z,28.08
2023-04-23T06:17:09.074Z,28.09
2023-04-23T06:18:09.128Z,28.09
2023-04-23T06:19:09.077Z,28.12
2023-04-23T06:20:09.084Z,28.09
2023-04-23T06:21:09.078Z,28.08
2023-04-23T06:22:09.094Z,28.12
2023-04-23T06:23:09.086Z,28.09
2023-04-23T06:24:09.076Z,28.11
2023-04-23T06:25:09.083Z,28.09
2023-04-23T06:26:09.080Z,28.05
2023-04-23T06:27:09.079Z,28.11
2023-04-23T06:28:09.082Z,28.11
2023-04-23T06:29:09.077Z,28.09
2023-04-23T06:30:09.082Z,28.08
2023-04-23T06:31:09.118Z,28.12
2023-04-23T06:32:09.092Z,28.14
2023-04-23T06:33:09.111Z,28.09
2023-04-23T06:34:09.123Z,28.09
2023-04-23T06:35:09.408Z,28.08
2023-04-23T06:36:09.133Z,28.14
2023-04-23T06:37:09.156Z,28.11
2023-04-23T06:38:09.174Z,28.08
2023-04-23T06:39:09.201Z,28.09
2023-04-23T06:40:09.211Z,28.12
2023-04-23T06:41:09.221Z,28.11
2023-04-23T06:42:09.221Z,28.11
2023-04-23T06:43:09.275Z,28.09
2023-04-23T06:44:09.267Z,28.08
2023-04-23T06:45:09.281Z,28.12
2023-04-23T06:46:09.297Z,28.14
2023-04-23T06:47:09.392Z,28.11
2023-04-23T06:48:09.418Z,28.11
2023-04-23T06:49:09.343Z,28.14
2023-04-23T06:50:09.356Z,28.12
2023-04-23T06:51:09.386Z,28.15
2023-04-23T06:52:09.402Z,28.12
2023-04-23T06:53:09.397Z,28.15
2023-04-23T06:54:09.413Z,28.13
2023-04-23T06:55:09.430Z,28.14
2023-04-23T06:56:09.430Z,28.19
2023-04-23T06:57:09.457Z,28.14
2023-04-23T06:58:09.455Z,28.18
2023-04-23T06:59:09.469Z,28.08
2023-04-23T07:00:09.480Z,28.15
2023-04-23T07:01:09.536Z,28.14
2023-04-23T07:02:09.513Z,28.12
2023-04-23T07:03:09.610Z,28.16
2023-04-23T07:04:09.508Z,28.14
2023-04-23T07:05:09.492Z,28.15
2023-04-23T07:06:09.493Z,28.16
2023-04-23T07:07:09.483Z,28.15
2023-04-23T07:08:09.482Z,28.15
2023-04-23T07:09:09.481Z,28.15
2023-04-23T07:10:09.471Z,28.19
2023-04-23T07:11:09.473Z,28.11
2023-04-23T07:12:09.472Z,28.18
2023-04-23T07:13:09.487Z,28.20
2023-04-23T07:14:09.467Z,28.19
2023-04-23T07:15:09.549Z,28.16
2023-04-23T07:16:09.482Z,28.15
2023-04-23T07:17:09.472Z,28.15
2023-04-23T07:18:09.455Z,28.14
2023-04-23T07:19:09.455Z,28.18
2023-04-23T07:20:09.483Z,28.16
2023-04-23T07:21:09.452Z,28.15
2023-04-23T07:22:09.450Z,28.18
2023-04-23T07:23:09.429Z,28.15
2023-04-23T07:24:09.425Z,28.14
2023-04-23T07:25:09.421Z,28.11
2023-04-23T07:26:09.412Z,28.14
2023-04-23T07:27:09.407Z,28.18
2023-04-23T07:28:09.404Z,28.14
2023-04-23T07:29:09.403Z,28.15
2023-04-23T07:30:09.397Z,28.16
2023-04-23T07:31:09.395Z,28.16
2023-04-23T07:32:09.437Z,28.16
2023-04-23T07:33:09.396Z,28.16
2023-04-23T07:34:09.400Z,28.18
2023-04-23T07:35:09.403Z,28.14
2023-04-23T07:36:09.397Z,28.15
2023-04-23T07:37:09.388Z,28.19
2023-04-23T07:38:09.409Z,28.10
2023-04-23T07:39:09.390Z,28.19
2023-04-23T07:40:09.392Z,28.12
2023-04-23T07:41:09.395Z,28.14
2023-04-23T07:42:09.396Z,28.16
2023-04-23T07:43:09.704Z,28.13
2023-04-23T07:44:09.425Z,28.14
2023-04-23T07:45:09.400Z,28.15
2023-04-23T07:46:09.471Z,28.13
2023-04-23T07:47:09.426Z,28.17
2023-04-23T07:48:09.405Z,28.19
2023-04-23T07:49:09.414Z,28.12
2023-04-23T07:50:09.407Z,28.17
2023-04-23T07:51:09.397Z,28.17
2023-04-23T07:52:09.398Z,28.16
2023-04-23T07:53:09.409Z,28.15
2023-04-23T07:54:09.402Z,28.11
2023-04-23T07:55:09.401Z,28.16
2023-04-23T07:56:09.416Z,28.17
2023-04-23T07:57:09.405Z,28.18
2023-04-23T07:58:09.409Z,28.14
2023-04-23T07:59:09.405Z,28.17
2023-04-23T08:00:09.425Z,28.17
2023-04-23T08:01:09.397Z,28.16
2023-04-23T08:02:09.498Z,28.17
2023-04-23T08:03:09.515Z,28.23
2023-04-23T08:04:09.653Z,28.21
2023-04-23T08:05:09.773Z,28.13
2023-04-23T08:06:09.387Z,28.19
2023-04-23T08:07:09.364Z,28.17
2023-04-23T08:08:09.369Z,28.19
2023-04-23T08:09:09.345Z,28.11
2023-04-23T08:10:09.343Z,28.11
2023-04-23T08:11:09.342Z,28.02
2023-04-23T08:12:09.326Z,28.04
2023-04-23T08:13:09.314Z,28.06
2023-04-23T08:14:09.312Z,28.06
2023-04-23T08:15:09.302Z,28.07
2023-04-23T08:16:09.323Z,27.99
2023-04-23T08:17:09.297Z,28.01
2023-04-23T08:18:09.312Z,27.96
2023-04-23T08:19:09.296Z,27.96
2023-04-23T08:20:09.298Z,28.01
2023-04-23T08:21:09.271Z,27.94
2023-04-23T08:22:09.276Z,27.90
2023-04-23T08:23:09.278Z,27.90
2023-04-23T08:24:09.257Z,27.93
2023-04-23T08:25:09.257Z,27.91
2023-04-23T08:26:09.250Z,27.89
2023-04-23T08:27:09.249Z,27.83
2023-04-23T08:28:09.270Z,27.90
2023-04-23T08:29:11.492Z,27.87
2023-04-23T08:30:09.296Z,27.87
2023-04-23T08:31:22.817Z,27.89
2023-04-23T08:32:10.428Z,27.85
2023-04-23T08:33:09.356Z,27.85
2023-04-23T08:34:09.332Z,27.80
2023-04-23T08:35:09.326Z,27.84
2023-04-23T08:36:09.319Z,27.80
2023-04-23T08:37:16.562Z,27.80
2023-04-23T08:38:10.353Z,27.77
2023-04-23T08:39:09.295Z,27.82
2023-04-23T08:40:09.312Z,27.77
2023-04-23T08:41:09.289Z,27.80
2023-04-23T08:42:09.283Z,27.83
2023-04-23T08:43:09.272Z,27.83
2023-04-23T08:44:09.280Z,27.76
2023-04-23T08:45:09.265Z,27.76
2023-04-23T08:46:09.333Z,27.77
2023-04-23T08:47:09.246Z,27.76
2023-04-23T08:48:09.309Z,27.74
2023-04-23T08:49:09.286Z,27.73
2023-04-23T08:50:09.346Z,27.74
2023-04-23T08:51:09.419Z,27.72
2023-04-23T08:52:09.473Z,27.68
2023-04-23T08:53:09.532Z,27.72
2023-04-23T08:54:09.655Z,27.73
2023-04-23T08:55:09.639Z,27.75
2023-04-23T08:56:09.711Z,27.75
2023-04-23T08:57:09.773Z,27.74
2023-04-23T08:58:09.840Z,27.69
2023-04-23T08:59:09.972Z,27.71
2023-04-23T09:00:09.959Z,27.75
2023-04-23T09:01:10.071Z,27.69
2023-04-23T09:02:10.219Z,27.72
2023-04-23T09:03:10.306Z,27.71
2023-04-23T09:04:10.184Z,27.72
2023-04-23T09:05:10.259Z,27.64
2023-04-23T09:06:10.305Z,27.66
2023-04-23T09:07:10.359Z,27.68
2023-04-23T09:08:10.421Z,27.67
2023-04-23T09:09:10.483Z,27.68
2023-04-23T09:10:10.541Z,27.68
2023-04-23T09:11:10.585Z,27.67
2023-04-23T09:12:10.655Z,27.71
2023-04-23T09:13:10.712Z,27.70
2023-04-23T09:14:10.780Z,27.66
2023-04-23T09:15:10.886Z,27.67
2023-04-23T09:16:10.923Z,27.63
2023-04-23T09:17:10.933Z,27.66
2023-04-23T09:18:11.247Z,27.66
2023-04-23T09:19:11.077Z,27.64
2023-04-23T09:20:11.124Z,27.60
2023-04-23T09:21:11.183Z,27.65
2023-04-23T09:22:11.251Z,27.63
2023-04-23T09:23:11.289Z,27.63
2023-04-23T09:24:11.567Z,27.59
2023-04-23T09:25:11.429Z,27.63
2023-04-23T09:26:11.458Z,27.63
2023-04-23T09:27:11.519Z,27.63
2023-04-23T09:28:11.553Z,27.63
2023-04-23T09:29:11.727Z,27.63
2023-04-23T09:30:11.757Z,27.62
2023-04-23T09:31:11.794Z,27.59
2023-04-23T09:32:11.935Z,27.60
2023-04-23T09:33:11.817Z,27.58
2023-04-23T09:34:11.800Z,27.56
2023-04-23T09:35:11.807Z,27.59
2023-04-23T09:36:11.804Z,27.61
2023-04-23T09:37:11.799Z,27.56
2023-04-23T09:38:11.774Z,27.56
2023-04-23T09:39:11.828Z,27.58
2023-04-23T09:40:11.780Z,27.61
2023-04-23T09:41:11.811Z,27.59
2023-04-23T09:42:11.735Z,27.62
2023-04-23T09:43:11.776Z,27.58
2023-04-23T09:44:11.837Z,27.61
2023-04-23T09:45:11.881Z,27.59
2023-04-23T09:46:11.984Z,27.66
2023-04-23T09:47:12.013Z,27.59
2023-04-23T09:48:12.043Z,27.64
2023-04-23T09:49:12.081Z,27.65
2023-04-23T09:50:12.139Z,27.57
2023-04-23T09:51:12.170Z,27.60
2023-04-23T09:52:12.276Z,27.57
2023-04-23T09:53:12.275Z,27.65
2023-04-23T09:54:12.317Z,27.62
2023-04-23T09:55:12.356Z,27.62
2023-04-23T09:56:12.354Z,27.58
2023-04-23T09:57:12.344Z,27.57
2023-04-23T09:58:12.385Z,27.57
2023-04-23T09:59:12.331Z,27.53
2023-04-23T10:00:14.650Z,27.54
2023-04-23T10:01:12.320Z,27.54
2023-04-23T10:02:12.385Z,27.57
2023-04-23T10:03:12.571Z,27.50
2023-04-23T10:04:12.382Z,27.58
2023-04-23T10:05:23.499Z,27.51
2023-04-23T10:06:21.606Z,27.54
2023-04-23T10:07:19.871Z,27.54
2023-04-23T10:08:13.267Z,27.55
2023-04-23T10:09:12.247Z,27.55
2023-04-23T10:10:12.245Z,27.51
2023-04-23T10:11:20.355Z,27.54
2023-04-23T10:12:28.944Z,27.51
2023-04-23T10:13:13.212Z,27.54
2023-04-23T10:14:12.204Z,27.54
2023-04-23T10:15:12.181Z,27.51
2023-04-23T10:16:21.656Z,27.53
2023-04-23T10:17:13.184Z,27.47
2023-04-23T10:18:12.158Z,27.49
2023-04-23T10:19:12.298Z,27.45
2023-04-23T10:20:12.159Z,27.50
2023-04-23T10:21:12.148Z,27.46
2023-04-23T10:22:19.315Z,27.44
2023-04-23T10:23:13.142Z,27.42
2023-04-23T10:24:12.121Z,27.49
2023-04-23T10:25:12.135Z,27.50
2023-04-23T10:26:12.094Z,27.50
2023-04-23T10:27:24.903Z,27.43
2023-04-23T10:28:13.079Z,27.49
2023-04-23T10:29:12.089Z,27.42
2023-04-23T10:30:12.075Z,27.46
2023-04-23T10:31:12.093Z,27.44
2023-04-23T10:32:12.172Z,27.46
2023-04-23T10:33:22.461Z,27.47
2023-04-23T10:34:13.040Z,27.43
2023-04-23T10:35:12.141Z,27.50
2023-04-23T10:36:12.070Z,27.53
2023-04-23T10:37:12.070Z,27.49
2023-04-23T10:38:12.058Z,27.44
2023-04-23T10:39:12.111Z,27.52
2023-04-23T10:40:11.981Z,27.45
2023-04-23T10:41:12.075Z,27.46
2023-04-23T10:42:12.143Z,27.44
2023-04-23T10:43:12.124Z,27.43
2023-04-23T10:44:12.222Z,27.37
2023-04-23T10:45:23.233Z,27.39
2023-04-23T10:46:13.260Z,27.43
2023-04-23T10:47:12.245Z,27.43
2023-04-23T10:48:12.223Z,27.38
2023-04-23T10:49:12.210Z,27.38
2023-04-23T10:50:12.202Z,27.41
2023-04-23T10:51:44.797Z,27.41
2023-04-23T10:52:18.448Z,27.42
2023-04-23T10:53:13.166Z,27.47
2023-04-23T10:54:12.166Z,27.35
2023-04-23T10:55:12.149Z,27.38
2023-04-23T10:56:12.143Z,27.37
2023-04-23T10:57:12.183Z,27.35
2023-04-23T10:58:12.174Z,27.37
2023-04-23T10:59:12.173Z,27.37
2023-04-23T11:00:12.123Z,27.38
2023-04-23T11:01:12.161Z,27.40
2023-04-23T11:02:12.233Z,27.38
2023-04-23T11:03:12.227Z,27.36
2023-04-23T11:04:12.171Z,27.37
2023-04-23T11:05:12.105Z,27.34
2023-04-23T11:06:12.004Z,27.33
2023-04-23T11:07:12.076Z,27.41
2023-04-23T11:08:19.514Z,27.37
2023-04-23T11:09:12.980Z,27.38
2023-04-23T11:10:11.980Z,27.36
2023-04-23T11:11:11.969Z,27.34
2023-04-23T11:12:11.945Z,27.36
2023-04-23T11:13:11.936Z,27.30
2023-04-23T11:14:11.938Z,27.37
2023-04-23T11:15:11.907Z,27.34
2023-04-23T11:16:11.944Z,27.34
2023-04-23T11:17:11.904Z,27.29
2023-04-23T11:18:11.951Z,27.34
2023-04-23T11:19:12.009Z,27.30
2023-04-23T11:20:12.152Z,27.34
2023-04-23T11:21:12.190Z,27.34
2023-04-23T11:22:12.158Z,27.33
2023-04-23T11:23:12.266Z,27.34
2023-04-23T11:24:12.267Z,27.24
2023-04-23T11:25:12.308Z,27.33
2023-04-23T11:26:12.361Z,27.31
2023-04-23T11:27:12.408Z,27.34
2023-04-23T11:28:12.462Z,27.33
2023-04-23T11:29:12.508Z,27.34
2023-04-23T11:30:12.620Z,27.34
2023-04-23T11:31:12.620Z,27.33
2023-04-23T11:32:12.713Z,27.31
2023-04-23T11:33:12.784Z,27.27
2023-04-23T11:34:12.788Z,27.30
2023-04-23T11:35:13.840Z,27.31
2023-04-23T11:36:12.895Z,27.33
2023-04-23T11:37:12.963Z,27.30
2023-04-23T11:38:13.007Z,27.26
2023-04-23T11:39:13.064Z,27.26
2023-04-23T11:40:13.106Z,27.29
2023-04-23T11:41:13.171Z,27.29
2023-04-23T11:42:13.337Z,27.31
2023-04-23T11:43:13.252Z,27.26
2023-04-23T11:44:13.312Z,27.31
2023-04-23T11:45:13.389Z,27.30
2023-04-23T11:46:13.427Z,27.30
2023-04-23T11:47:13.447Z,27.30
2023-04-23T11:48:13.489Z,27.34
2023-04-23T11:49:13.558Z,27.34
2023-04-23T11:50:13.592Z,27.30
2023-04-23T11:51:13.675Z,27.30
2023-04-23T11:52:13.702Z,27.28
2023-04-23T11:53:13.747Z,27.28
2023-04-23T11:54:13.935Z,27.26
2023-04-23T11:55:13.846Z,27.31
2023-04-23T11:56:13.907Z,27.27
2023-04-23T11:57:13.973Z,27.27
2023-04-23T11:58:14.017Z,27.31
2023-04-23T11:59:14.057Z,27.29
2023-04-23T12:00:14.096Z,27.28
2023-04-23T12:01:14.168Z,27.26
2023-04-23T12:02:14.282Z,27.27
2023-04-23T12:03:14.361Z,27.23
2023-04-23T12:04:14.467Z,27.22
2023-04-23T12:05:14.385Z,27.22
2023-04-23T12:06:14.402Z,27.19
2023-04-23T12:07:25.879Z,27.20
2023-04-23T12:08:15.477Z,27.20
2023-04-23T12:09:14.475Z,27.19
2023-04-23T12:10:16.464Z,27.16
2023-04-23T12:11:14.442Z,27.14
2023-04-23T12:12:14.444Z,27.15
2023-04-23T12:13:14.446Z,27.12
2023-04-23T12:14:14.427Z,27.10
2023-04-23T12:15:14.455Z,27.12
2023-04-23T12:16:14.525Z,27.10
2023-04-23T12:17:14.578Z,27.11
2023-04-23T12:18:14.603Z,27.11
2023-04-23T12:19:14.669Z,27.11
2023-04-23T12:20:14.696Z,27.11
2023-04-23T12:21:14.738Z,27.10
2023-04-23T12:22:14.815Z,27.14
2023-04-23T12:23:14.851Z,27.06
2023-04-23T12:24:14.912Z,27.10
2023-04-23T12:25:14.965Z,27.12
2023-04-23T12:26:15.052Z,27.14
2023-04-23T12:27:15.054Z,27.15
2023-04-23T12:28:15.099Z,27.16
2023-04-23T12:29:15.158Z,27.18
2023-04-23T12:30:15.202Z,27.18
2023-04-23T12:31:15.328Z,27.17
2023-04-23T12:32:15.300Z,27.20
2023-04-23T12:33:15.364Z,27.22
2023-04-23T12:34:15.402Z,27.24
2023-04-23T12:35:15.474Z,27.17
2023-04-23T12:36:15.510Z,27.19
2023-04-23T12:37:15.575Z,27.16
2023-04-23T12:38:15.626Z,27.22
2023-04-23T12:39:15.682Z,27.17
2023-04-23T12:40:15.719Z,27.24
2023-04-23T12:41:15.792Z,27.16
2023-04-23T12:42:15.827Z,27.24
2023-04-23T12:43:15.892Z,27.20
2023-04-23T12:44:15.934Z,27.21
2023-04-23T12:45:15.992Z,27.17
2023-04-23T12:46:16.067Z,27.15
2023-04-23T12:47:16.109Z,27.15
2023-04-23T12:48:16.140Z,27.11
2023-04-23T12:49:16.186Z,27.11
2023-04-23T12:50:16.238Z,27.09
2023-04-23T12:51:16.308Z,27.08
2023-04-23T12:52:16.349Z,27.06
2023-04-23T12:53:16.400Z,27.08
2023-04-23T12:54:16.460Z,27.06